sensor_id;sensor_type;location;lat;lon;timestamp;P1;durP1;ratioP1;P2;durP2;ratioP2
23826;SDS011;12094;50.822;4.376;2023-06-04T00:01:38;7.88;;;1.70;;
23826;SDS011;12094;50.822;4.376;2023-06-04T00:04:05;2.55;;;1.50;;
23826;SDS011;12094;50.822;4.376;2023-06-04T00:06:32;7.63;;;1.65;;
23826;SDS011;12094;50.822;4.376;2023-06-04T00:08:59;9.00;;;1.60;;
23826;SDS011;12094;50.822;4.376;2023-06-04T00:11:27;3.97;;;1.67;;
23826;SDS011;12094;50.822;4.376;2023-06-04T00:13:55;6.03;;;1.92;;
23826;SDS011;12094;50.822;4.376;2023-06-04T00:16:23;5.10;;;1.65;;
23826;SDS011;12094;50.822;4.376;2023-06-04T00:18:51;3.25;;;1.15;;
23826;SDS011;12094;50.822;4.376;2023-06-04T00:21:18;3.22;;;1.70;;
23826;SDS011;12094;50.822;4.376;2023-06-04T00:23:47;7.93;;;1.80;;
23826;SDS011;12094;50.822;4.376;2023-06-04T00:26:14;2.40;;;1.48;;
23826;SDS011;12094;50.822;4.376;2023-06-04T00:28:45;2.50;;;1.65;;
23826;SDS011;12094;50.822;4.376;2023-06-04T00:31:12;3.42;;;1.73;;
23826;SDS011;12094;50.822;4.376;2023-06-04T00:33:39;2.65;;;1.65;;
23826;SDS011;12094;50.822;4.376;2023-06-04T00:36:12;4.47;;;1.55;;
23826;SDS011;12094;50.822;4.376;2023-06-04T00:38:39;3.55;;;1.50;;
23826;SDS011;12094;50.822;4.376;2023-06-04T00:41:08;6.40;;;1.92;;
23826;SDS011;12094;50.822;4.376;2023-06-04T00:43:36;10.85;;;1.75;;
23826;SDS011;12094;50.822;4.376;2023-06-04T00:46:05;4.53;;;1.88;;
23826;SDS011;12094;50.822;4.376;2023-06-04T00:48:33;5.28;;;1.60;;
23826;SDS011;12094;50.822;4.376;2023-06-04T00:51:00;5.28;;;2.00;;
23826;SDS011;12094;50.822;4.376;2023-06-04T00:53:28;3.63;;;1.60;;
23826;SDS011;12094;50.822;4.376;2023-06-04T00:55:55;3.90;;;1.60;;
23826;SDS011;12094;50.822;4.376;2023-06-04T00:58:22;6.43;;;1.60;;
23826;SDS011;12094;50.822;4.376;2023-06-04T01:00:54;7.68;;;1.67;;
23826;SDS011;12094;50.822;4.376;2023-06-04T01:03:26;6.75;;;1.77;;
23826;SDS011;12094;50.822;4.376;2023-06-04T01:06:04;4.50;;;1.80;;
23826;SDS011;12094;50.822;4.376;2023-06-04T01:08:55;4.53;;;1.88;;
23826;SDS011;12094;50.822;4.376;2023-06-04T01:11:32;2.95;;;1.30;;
23826;SDS011;12094;50.822;4.376;2023-06-04T01:14:01;4.07;;;1.52;;
23826;SDS011;12094;50.822;4.376;2023-06-04T01:16:35;7.70;;;2.20;;
23826;SDS011;12094;50.822;4.376;2023-06-04T01:19:20;5.93;;;1.70;;
23826;SDS011;12094;50.822;4.376;2023-06-04T01:25:03;5.85;;;1.98;;
23826;SDS011;12094;50.822;4.376;2023-06-04T01:27:51;5.22;;;1.67;;
23826;SDS011;12094;50.822;4.376;2023-06-04T01:30:26;5.15;;;2.03;;
23826;SDS011;12094;50.822;4.376;2023-06-04T01:33:01;12.55;;;2.17;;
23826;SDS011;12094;50.822;4.376;2023-06-04T01:35:30;5.25;;;2.30;;
23826;SDS011;12094;50.822;4.376;2023-06-04T01:37:57;3.55;;;1.80;;
23826;SDS011;12094;50.822;4.376;2023-06-04T01:40:24;7.35;;;2.15;;
23826;SDS011;12094;50.822;4.376;2023-06-04T01:42:53;5.43;;;2.03;;
23826;SDS011;12094;50.822;4.376;2023-06-04T01:45:22;5.70;;;2.03;;
23826;SDS011;12094;50.822;4.376;2023-06-04T01:47:51;9.45;;;2.20;;
23826;SDS011;12094;50.822;4.376;2023-06-04T01:50:18;3.90;;;2.17;;
23826;SDS011;12094;50.822;4.376;2023-06-04T01:52:45;9.60;;;2.40;;
23826;SDS011;12094;50.822;4.376;2023-06-04T01:55:13;6.57;;;2.50;;
23826;SDS011;12094;50.822;4.376;2023-06-04T01:57:41;5.28;;;2.67;;
23826;SDS011;12094;50.822;4.376;2023-06-04T02:00:11;3.85;;;2.35;;
23826;SDS011;12094;50.822;4.376;2023-06-04T02:02:39;3.65;;;2.38;;
23826;SDS011;12094;50.822;4.376;2023-06-04T02:05:08;9.32;;;2.65;;
23826;SDS011;12094;50.822;4.376;2023-06-04T02:07:37;11.30;;;2.53;;
23826;SDS011;12094;50.822;4.376;2023-06-04T02:10:06;8.13;;;2.42;;
23826;SDS011;12094;50.822;4.376;2023-06-04T02:12:56;8.95;;;2.45;;
23826;SDS011;12094;50.822;4.376;2023-06-04T02:15:26;5.40;;;2.63;;
23826;SDS011;12094;50.822;4.376;2023-06-04T02:17:54;5.35;;;2.65;;
23826;SDS011;12094;50.822;4.376;2023-06-04T02:20:26;3.90;;;2.45;;
23826;SDS011;12094;50.822;4.376;2023-06-04T02:22:54;5.82;;;2.60;;
23826;SDS011;12094;50.822;4.376;2023-06-04T02:25:22;5.90;;;2.70;;
23826;SDS011;12094;50.822;4.376;2023-06-04T02:27:50;6.75;;;2.78;;
23826;SDS011;12094;50.822;4.376;2023-06-04T02:30:17;9.77;;;2.80;;
23826;SDS011;12094;50.822;4.376;2023-06-04T02:32:45;5.72;;;2.47;;
23826;SDS011;12094;50.822;4.376;2023-06-04T02:35:17;7.60;;;2.88;;
23826;SDS011;12094;50.822;4.376;2023-06-04T02:37:44;6.53;;;2.63;;
23826;SDS011;12094;50.822;4.376;2023-06-04T02:40:11;7.25;;;2.60;;
23826;SDS011;12094;50.822;4.376;2023-06-04T02:42:39;5.50;;;2.58;;
23826;SDS011;12094;50.822;4.376;2023-06-04T02:45:06;6.70;;;2.88;;
23826;SDS011;12094;50.822;4.376;2023-06-04T02:47:37;5.65;;;2.38;;
23826;SDS011;12094;50.822;4.376;2023-06-04T02:50:04;12.95;;;2.78;;
23826;SDS011;12094;50.822;4.376;2023-06-04T02:52:34;4.75;;;2.50;;
23826;SDS011;12094;50.822;4.376;2023-06-04T02:55:05;8.25;;;3.05;;
23826;SDS011;12094;50.822;4.376;2023-06-04T02:57:35;9.68;;;3.03;;
23826;SDS011;12094;50.822;4.376;2023-06-04T03:00:03;6.28;;;3.75;;
23826;SDS011;12094;50.822;4.376;2023-06-04T03:02:41;9.27;;;3.17;;
23826;SDS011;12094;50.822;4.376;2023-06-04T03:05:10;5.88;;;2.85;;
23826;SDS011;12094;50.822;4.376;2023-06-04T03:07:41;4.00;;;2.65;;
23826;SDS011;12094;50.822;4.376;2023-06-04T03:10:10;5.10;;;2.85;;
23826;SDS011;12094;50.822;4.376;2023-06-04T03:12:38;5.70;;;2.90;;
23826;SDS011;12094;50.822;4.376;2023-06-04T03:15:06;6.80;;;2.60;;
23826;SDS011;12094;50.822;4.376;2023-06-04T03:17:33;7.20;;;2.85;;
23826;SDS011;12094;50.822;4.376;2023-06-04T03:20:00;6.93;;;2.97;;
23826;SDS011;12094;50.822;4.376;2023-06-04T03:22:30;8.38;;;2.78;;
23826;SDS011;12094;50.822;4.376;2023-06-04T03:24:57;4.53;;;2.78;;
23826;SDS011;12094;50.822;4.376;2023-06-04T03:27:25;5.15;;;2.97;;
23826;SDS011;12094;50.822;4.376;2023-06-04T03:29:52;8.38;;;3.22;;
23826;SDS011;12094;50.822;4.376;2023-06-04T03:32:19;5.75;;;3.00;;
23826;SDS011;12094;50.822;4.376;2023-06-04T03:34:47;8.23;;;2.60;;
23826;SDS011;12094;50.822;4.376;2023-06-04T03:37:16;7.45;;;2.88;;
23826;SDS011;12094;50.822;4.376;2023-06-04T03:39:44;9.07;;;3.15;;
23826;SDS011;12094;50.822;4.376;2023-06-04T03:42:14;7.00;;;3.00;;
23826;SDS011;12094;50.822;4.376;2023-06-04T03:44:41;10.43;;;3.13;;
23826;SDS011;12094;50.822;4.376;2023-06-04T03:47:09;6.18;;;3.00;;
23826;SDS011;12094;50.822;4.376;2023-06-04T03:49:40;6.82;;;3.13;;
23826;SDS011;12094;50.822;4.376;2023-06-04T03:52:07;8.27;;;3.20;;
23826;SDS011;12094;50.822;4.376;2023-06-04T03:54:36;5.25;;;2.85;;
23826;SDS011;12094;50.822;4.376;2023-06-04T03:57:03;6.20;;;3.20;;
23826;SDS011;12094;50.822;4.376;2023-06-04T03:59:30;4.13;;;2.90;;
23826;SDS011;12094;50.822;4.376;2023-06-04T04:01:58;12.70;;;3.00;;
23826;SDS011;12094;50.822;4.376;2023-06-04T04:04:26;6.47;;;3.25;;
23826;SDS011;12094;50.822;4.376;2023-06-04T04:06:53;5.55;;;3.00;;
23826;SDS011;12094;50.822;4.376;2023-06-04T04:09:20;6.93;;;3.38;;
23826;SDS011;12094;50.822;4.376;2023-06-04T04:11:47;9.00;;;3.20;;
23826;SDS011;12094;50.822;4.376;2023-06-04T04:14:14;9.48;;;3.00;;
23826;SDS011;12094;50.822;4.376;2023-06-04T04:16:42;10.00;;;2.95;;
23826;SDS011;12094;50.822;4.376;2023-06-04T04:19:10;6.53;;;3.45;;
23826;SDS011;12094;50.822;4.376;2023-06-04T04:21:38;6.60;;;3.25;;
23826;SDS011;12094;50.822;4.376;2023-06-04T04:24:07;7.82;;;3.50;;
23826;SDS011;12094;50.822;4.376;2023-06-04T04:26:36;6.43;;;3.25;;
23826;SDS011;12094;50.822;4.376;2023-06-04T04:29:04;9.30;;;3.35;;
23826;SDS011;12094;50.822;4.376;2023-06-04T04:31:33;9.00;;;3.88;;
23826;SDS011;12094;50.822;4.376;2023-06-04T04:34:06;10.35;;;3.30;;
23826;SDS011;12094;50.822;4.376;2023-06-04T04:36:39;8.23;;;3.00;;
23826;SDS011;12094;50.822;4.376;2023-06-04T04:39:08;7.00;;;3.40;;
23826;SDS011;12094;50.822;4.376;2023-06-04T04:41:36;8.35;;;3.30;;
23826;SDS011;12094;50.822;4.376;2023-06-04T04:44:05;5.97;;;3.38;;
23826;SDS011;12094;50.822;4.376;2023-06-04T04:46:32;7.78;;;3.42;;
23826;SDS011;12094;50.822;4.376;2023-06-04T04:48:59;8.43;;;3.45;;
23826;SDS011;12094;50.822;4.376;2023-06-04T04:51:27;5.78;;;3.40;;
23826;SDS011;12094;50.822;4.376;2023-06-04T04:53:57;5.82;;;2.90;;
23826;SDS011;12094;50.822;4.376;2023-06-04T04:56:33;8.82;;;3.58;;
23826;SDS011;12094;50.822;4.376;2023-06-04T04:59:04;12.38;;;3.33;;
23826;SDS011;12094;50.822;4.376;2023-06-04T05:01:33;7.80;;;3.35;;
23826;SDS011;12094;50.822;4.376;2023-06-04T05:04:01;7.63;;;3.35;;
23826;SDS011;12094;50.822;4.376;2023-06-04T05:06:29;12.30;;;3.47;;
23826;SDS011;12094;50.822;4.376;2023-06-04T05:08:59;8.05;;;3.53;;
23826;SDS011;12094;50.822;4.376;2023-06-04T05:11:28;6.45;;;3.38;;
23826;SDS011;12094;50.822;4.376;2023-06-04T05:13:57;8.48;;;3.40;;
23826;SDS011;12094;50.822;4.376;2023-06-04T05:16:24;8.10;;;3.40;;
23826;SDS011;12094;50.822;4.376;2023-06-04T05:18:51;9.55;;;3.05;;
23826;SDS011;12094;50.822;4.376;2023-06-04T05:21:22;5.88;;;3.20;;
23826;SDS011;12094;50.822;4.376;2023-06-04T05:23:55;9.15;;;3.38;;
23826;SDS011;12094;50.822;4.376;2023-06-04T05:26:26;6.25;;;3.10;;
23826;SDS011;12094;50.822;4.376;2023-06-04T05:28:58;9.07;;;3.58;;
23826;SDS011;12094;50.822;4.376;2023-06-04T05:31:29;7.43;;;3.20;;
23826;SDS011;12094;50.822;4.376;2023-06-04T05:34:00;7.55;;;3.25;;
23826;SDS011;12094;50.822;4.376;2023-06-04T05:36:37;7.30;;;3.55;;
23826;SDS011;12094;50.822;4.376;2023-06-04T05:39:07;8.27;;;3.70;;
23826;SDS011;12094;50.822;4.376;2023-06-04T05:41:44;7.35;;;3.58;;
23826;SDS011;12094;50.822;4.376;2023-06-04T05:44:14;8.38;;;3.58;;
23826;SDS011;12094;50.822;4.376;2023-06-04T05:46:41;6.30;;;3.47;;
23826;SDS011;12094;50.822;4.376;2023-06-04T05:49:09;5.47;;;3.45;;
23826;SDS011;12094;50.822;4.376;2023-06-04T05:51:36;8.20;;;3.65;;
23826;SDS011;12094;50.822;4.376;2023-06-04T05:54:04;8.05;;;3.55;;
23826;SDS011;12094;50.822;4.376;2023-06-04T05:56:34;7.20;;;3.65;;
23826;SDS011;12094;50.822;4.376;2023-06-04T05:59:01;8.60;;;3.15;;
23826;SDS011;12094;50.822;4.376;2023-06-04T06:01:28;7.40;;;3.20;;
23826;SDS011;12094;50.822;4.376;2023-06-04T06:03:56;6.75;;;3.15;;
23826;SDS011;12094;50.822;4.376;2023-06-04T06:06:29;6.15;;;3.53;;
23826;SDS011;12094;50.822;4.376;2023-06-04T06:11:51;8.40;;;3.20;;
23826;SDS011;12094;50.822;4.376;2023-06-04T06:21:01;10.77;;;3.55;;
23826;SDS011;12094;50.822;4.376;2023-06-04T06:23:28;5.93;;;2.83;;
23826;SDS011;12094;50.822;4.376;2023-06-04T06:25:55;6.15;;;3.28;;
23826;SDS011;12094;50.822;4.376;2023-06-04T06:28:30;9.40;;;3.07;;
23826;SDS011;12094;50.822;4.376;2023-06-04T06:30:58;8.00;;;3.20;;
23826;SDS011;12094;50.822;4.376;2023-06-04T06:33:25;7.95;;;3.58;;
23826;SDS011;12094;50.822;4.376;2023-06-04T06:35:53;13.82;;;3.47;;
23826;SDS011;12094;50.822;4.376;2023-06-04T06:38:22;9.95;;;2.85;;
23826;SDS011;12094;50.822;4.376;2023-06-04T06:40:49;9.70;;;3.42;;
23826;SDS011;12094;50.822;4.376;2023-06-04T06:45:48;7.13;;;3.22;;
23826;SDS011;12094;50.822;4.376;2023-06-04T06:48:17;6.95;;;3.03;;
23826;SDS011;12094;50.822;4.376;2023-06-04T06:51:03;9.73;;;3.25;;
23826;SDS011;12094;50.822;4.376;2023-06-04T06:53:32;6.50;;;3.08;;
23826;SDS011;12094;50.822;4.376;2023-06-04T06:55:59;4.95;;;3.10;;
23826;SDS011;12094;50.822;4.376;2023-06-04T06:58:30;5.75;;;3.58;;
23826;SDS011;12094;50.822;4.376;2023-06-04T07:00:58;6.72;;;2.80;;
23826;SDS011;12094;50.822;4.376;2023-06-04T07:03:25;5.05;;;3.10;;
23826;SDS011;12094;50.822;4.376;2023-06-04T07:05:58;8.25;;;3.17;;
23826;SDS011;12094;50.822;4.376;2023-06-04T07:08:27;7.95;;;3.08;;
23826;SDS011;12094;50.822;4.376;2023-06-04T07:10:57;10.25;;;3.13;;
23826;SDS011;12094;50.822;4.376;2023-06-04T07:13:26;6.60;;;2.83;;
23826;SDS011;12094;50.822;4.376;2023-06-04T07:15:57;6.18;;;2.70;;
23826;SDS011;12094;50.822;4.376;2023-06-04T07:18:38;5.07;;;2.80;;
23826;SDS011;12094;50.822;4.376;2023-06-04T07:21:06;5.18;;;2.72;;
23826;SDS011;12094;50.822;4.376;2023-06-04T07:23:36;4.50;;;2.22;;
23826;SDS011;12094;50.822;4.376;2023-06-04T07:26:05;7.63;;;2.67;;
23826;SDS011;12094;50.822;4.376;2023-06-04T07:28:34;4.50;;;2.55;;
23826;SDS011;12094;50.822;4.376;2023-06-04T07:31:05;6.60;;;2.33;;
23826;SDS011;12094;50.822;4.376;2023-06-04T07:33:38;6.35;;;2.47;;
23826;SDS011;12094;50.822;4.376;2023-06-04T07:36:15;8.18;;;2.53;;
23826;SDS011;12094;50.822;4.376;2023-06-04T07:38:59;4.53;;;2.65;;
23826;SDS011;12094;50.822;4.376;2023-06-04T07:41:30;4.10;;;2.30;;
23826;SDS011;12094;50.822;4.376;2023-06-04T07:43:57;4.43;;;2.50;;
23826;SDS011;12094;50.822;4.376;2023-06-04T07:46:25;4.25;;;2.35;;
23826;SDS011;12094;50.822;4.376;2023-06-04T07:48:56;3.10;;;2.33;;
23826;SDS011;12094;50.822;4.376;2023-06-04T07:51:23;5.45;;;2.35;;
23826;SDS011;12094;50.822;4.376;2023-06-04T07:53:51;4.50;;;2.38;;
23826;SDS011;12094;50.822;4.376;2023-06-04T07:56:20;8.43;;;2.47;;
23826;SDS011;12094;50.822;4.376;2023-06-04T07:58:48;6.22;;;2.17;;
23826;SDS011;12094;50.822;4.376;2023-06-04T08:01:16;7.32;;;2.05;;
23826;SDS011;12094;50.822;4.376;2023-06-04T08:03:44;8.30;;;2.25;;
23826;SDS011;12094;50.822;4.376;2023-06-04T08:06:12;6.45;;;2.22;;
23826;SDS011;12094;50.822;4.376;2023-06-04T08:08:42;6.53;;;2.30;;
23826;SDS011;12094;50.822;4.376;2023-06-04T08:11:15;6.60;;;2.20;;
23826;SDS011;12094;50.822;4.376;2023-06-04T08:13:44;5.65;;;2.28;;
23826;SDS011;12094;50.822;4.376;2023-06-04T08:16:11;4.03;;;2.30;;
23826;SDS011;12094;50.822;4.376;2023-06-04T08:18:40;9.52;;;2.47;;
23826;SDS011;12094;50.822;4.376;2023-06-04T08:21:09;6.28;;;1.85;;
23826;SDS011;12094;50.822;4.376;2023-06-04T08:23:43;10.98;;;2.20;;
23826;SDS011;12094;50.822;4.376;2023-06-04T08:26:10;8.52;;;2.10;;
23826;SDS011;12094;50.822;4.376;2023-06-04T08:28:38;5.55;;;1.70;;
23826;SDS011;12094;50.822;4.376;2023-06-04T08:31:06;5.80;;;1.88;;
23826;SDS011;12094;50.822;4.376;2023-06-04T08:33:35;5.93;;;1.88;;
23826;SDS011;12094;50.822;4.376;2023-06-04T08:36:04;5.10;;;1.80;;
23826;SDS011;12094;50.822;4.376;2023-06-04T08:38:32;4.72;;;1.95;;
23826;SDS011;12094;50.822;4.376;2023-06-04T08:41:02;3.33;;;1.73;;
23826;SDS011;12094;50.822;4.376;2023-06-04T08:43:42;3.28;;;1.90;;
23826;SDS011;12094;50.822;4.376;2023-06-04T08:46:12;3.40;;;1.80;;
23826;SDS011;12094;50.822;4.376;2023-06-04T08:48:44;9.38;;;2.00;;
23826;SDS011;12094;50.822;4.376;2023-06-04T08:51:11;4.07;;;1.95;;
23826;SDS011;12094;50.822;4.376;2023-06-04T08:53:43;3.42;;;1.88;;
23826;SDS011;12094;50.822;4.376;2023-06-04T08:56:14;6.50;;;1.85;;
23826;SDS011;12094;50.822;4.376;2023-06-04T08:58:41;5.65;;;2.00;;
23826;SDS011;12094;50.822;4.376;2023-06-04T09:01:09;5.97;;;1.83;;
23826;SDS011;12094;50.822;4.376;2023-06-04T09:03:37;4.97;;;1.73;;
23826;SDS011;12094;50.822;4.376;2023-06-04T09:06:05;4.32;;;1.70;;
23826;SDS011;12094;50.822;4.376;2023-06-04T09:08:34;5.82;;;1.67;;
23826;SDS011;12094;50.822;4.376;2023-06-04T09:11:05;4.40;;;1.80;;
23826;SDS011;12094;50.822;4.376;2023-06-04T09:13:36;6.40;;;1.90;;
23826;SDS011;12094;50.822;4.376;2023-06-04T09:16:06;7.75;;;1.92;;
23826;SDS011;12094;50.822;4.376;2023-06-04T09:18:33;5.20;;;1.73;;
23826;SDS011;12094;50.822;4.376;2023-06-04T09:21:03;4.35;;;1.85;;
23826;SDS011;12094;50.822;4.376;2023-06-04T09:26:12;4.80;;;2.10;;
23826;SDS011;12094;50.822;4.376;2023-06-04T09:28:40;4.45;;;1.48;;
23826;SDS011;12094;50.822;4.376;2023-06-04T09:31:12;5.90;;;1.70;;
23826;SDS011;12094;50.822;4.376;2023-06-04T09:33:45;4.80;;;1.60;;
23826;SDS011;12094;50.822;4.376;2023-06-04T09:38:42;9.98;;;2.05;;
23826;SDS011;12094;50.822;4.376;2023-06-04T09:41:14;3.72;;;1.85;;
23826;SDS011;12094;50.822;4.376;2023-06-04T09:43:43;4.80;;;1.65;;
23826;SDS011;12094;50.822;4.376;2023-06-04T09:46:14;9.85;;;2.00;;
23826;SDS011;12094;50.822;4.376;2023-06-04T09:48:43;6.15;;;1.80;;
23826;SDS011;12094;50.822;4.376;2023-06-04T09:51:12;10.38;;;2.28;;
23826;SDS011;12094;50.822;4.376;2023-06-04T09:53:41;5.97;;;2.15;;
23826;SDS011;12094;50.822;4.376;2023-06-04T09:56:20;8.00;;;2.00;;
23826;SDS011;12094;50.822;4.376;2023-06-04T09:58:48;6.00;;;1.70;;
23826;SDS011;12094;50.822;4.376;2023-06-04T10:01:15;3.50;;;1.52;;
23826;SDS011;12094;50.822;4.376;2023-06-04T10:03:45;6.90;;;2.10;;
23826;SDS011;12094;50.822;4.376;2023-06-04T10:06:16;8.13;;;1.88;;
23826;SDS011;12094;50.822;4.376;2023-06-04T10:08:46;4.93;;;1.70;;
23826;SDS011;12094;50.822;4.376;2023-06-04T10:11:17;10.10;;;2.33;;
23826;SDS011;12094;50.822;4.376;2023-06-04T10:14:00;6.45;;;1.80;;
23826;SDS011;12094;50.822;4.376;2023-06-04T10:16:34;5.63;;;2.40;;
23826;SDS011;12094;50.822;4.376;2023-06-04T10:19:06;3.65;;;1.95;;
23826;SDS011;12094;50.822;4.376;2023-06-04T10:21:34;6.90;;;1.65;;
23826;SDS011;12094;50.822;4.376;2023-06-04T10:24:12;3.38;;;2.22;;
23826;SDS011;12094;50.822;4.376;2023-06-04T10:29:13;6.07;;;1.98;;
23826;SDS011;12094;50.822;4.376;2023-06-04T10:31:42;2.53;;;1.88;;
23826;SDS011;12094;50.822;4.376;2023-06-04T10:34:11;4.53;;;2.03;;
23826;SDS011;12094;50.822;4.376;2023-06-04T10:36:43;3.38;;;1.73;;
23826;SDS011;12094;50.822;4.376;2023-06-04T10:41:39;6.40;;;1.80;;
23826;SDS011;12094;50.822;4.376;2023-06-04T10:44:06;6.32;;;1.92;;
23826;SDS011;12094;50.822;4.376;2023-06-04T10:46:38;9.15;;;2.50;;
23826;SDS011;12094;50.822;4.376;2023-06-04T10:49:10;8.82;;;2.00;;
23826;SDS011;12094;50.822;4.376;2023-06-04T10:51:41;4.50;;;1.88;;
23826;SDS011;12094;50.822;4.376;2023-06-04T10:54:21;4.18;;;1.90;;
23826;SDS011;12094;50.822;4.376;2023-06-04T10:56:51;5.13;;;1.70;;
23826;SDS011;12094;50.822;4.376;2023-06-04T10:59:21;5.88;;;2.13;;
23826;SDS011;12094;50.822;4.376;2023-06-04T11:01:51;4.70;;;1.75;;
23826;SDS011;12094;50.822;4.376;2023-06-04T11:04:19;7.25;;;2.40;;
23826;SDS011;12094;50.822;4.376;2023-06-04T11:07:02;9.63;;;2.03;;
23826;SDS011;12094;50.822;4.376;2023-06-04T11:09:38;4.88;;;1.90;;
23826;SDS011;12094;50.822;4.376;2023-06-04T11:12:14;3.38;;;1.70;;
23826;SDS011;12094;50.822;4.376;2023-06-04T11:14:55;5.30;;;1.77;;
23826;SDS011;12094;50.822;4.376;2023-06-04T11:20:25;4.45;;;2.15;;
23826;SDS011;12094;50.822;4.376;2023-06-04T11:22:54;4.63;;;2.15;;
23826;SDS011;12094;50.822;4.376;2023-06-04T11:25:24;4.88;;;2.20;;
23826;SDS011;12094;50.822;4.376;2023-06-04T11:27:54;4.97;;;2.00;;
23826;SDS011;12094;50.822;4.376;2023-06-04T11:30:26;5.07;;;2.40;;
23826;SDS011;12094;50.822;4.376;2023-06-04T11:33:05;4.50;;;1.90;;
23826;SDS011;12094;50.822;4.376;2023-06-04T11:35:42;8.20;;;2.22;;
23826;SDS011;12094;50.822;4.376;2023-06-04T11:38:10;5.75;;;1.92;;
23826;SDS011;12094;50.822;4.376;2023-06-04T11:40:38;10.80;;;2.33;;
23826;SDS011;12094;50.822;4.376;2023-06-04T11:43:05;6.53;;;1.88;;
23826;SDS011;12094;50.822;4.376;2023-06-04T11:45:35;3.33;;;1.63;;
23826;SDS011;12094;50.822;4.376;2023-06-04T11:48:05;7.68;;;2.30;;
23826;SDS011;12094;50.822;4.376;2023-06-04T11:50:34;6.72;;;2.05;;
23826;SDS011;12094;50.822;4.376;2023-06-04T11:53:07;5.20;;;1.80;;
23826;SDS011;12094;50.822;4.376;2023-06-04T11:55:34;5.82;;;1.70;;
23826;SDS011;12094;50.822;4.376;2023-06-04T11:58:05;4.22;;;1.77;;
23826;SDS011;12094;50.822;4.376;2023-06-04T12:00:33;4.15;;;1.63;;
23826;SDS011;12094;50.822;4.376;2023-06-04T12:03:01;5.07;;;1.80;;
23826;SDS011;12094;50.822;4.376;2023-06-04T12:05:30;6.53;;;1.55;;
23826;SDS011;12094;50.822;4.376;2023-06-04T12:08:05;5.28;;;1.90;;
23826;SDS011;12094;50.822;4.376;2023-06-04T12:10:41;3.72;;;1.70;;
23826;SDS011;12094;50.822;4.376;2023-06-04T12:13:10;4.32;;;1.63;;
23826;SDS011;12094;50.822;4.376;2023-06-04T12:15:37;3.65;;;1.77;;
23826;SDS011;12094;50.822;4.376;2023-06-04T12:18:08;3.95;;;1.42;;
23826;SDS011;12094;50.822;4.376;2023-06-04T12:20:37;5.07;;;1.50;;
23826;SDS011;12094;50.822;4.376;2023-06-04T12:23:05;5.88;;;1.90;;
23826;SDS011;12094;50.822;4.376;2023-06-04T12:25:34;3.35;;;1.85;;
23826;SDS011;12094;50.822;4.376;2023-06-04T12:28:05;5.13;;;1.80;;
23826;SDS011;12094;50.822;4.376;2023-06-04T12:30:35;6.22;;;2.03;;
23826;SDS011;12094;50.822;4.376;2023-06-04T12:33:03;5.25;;;1.73;;
23826;SDS011;12094;50.822;4.376;2023-06-04T12:35:31;4.10;;;1.50;;
23826;SDS011;12094;50.822;4.376;2023-06-04T12:38:02;3.63;;;2.10;;
23826;SDS011;12094;50.822;4.376;2023-06-04T12:43:00;4.60;;;1.80;;
23826;SDS011;12094;50.822;4.376;2023-06-04T12:45:29;6.07;;;1.80;;
23826;SDS011;12094;50.822;4.376;2023-06-04T12:47:59;5.55;;;1.77;;
23826;SDS011;12094;50.822;4.376;2023-06-04T12:50:32;4.93;;;1.88;;
23826;SDS011;12094;50.822;4.376;2023-06-04T12:53:00;4.68;;;2.20;;
23826;SDS011;12094;50.822;4.376;2023-06-04T12:55:28;5.43;;;2.00;;
23826;SDS011;12094;50.822;4.376;2023-06-04T12:57:56;8.55;;;1.80;;
23826;SDS011;12094;50.822;4.376;2023-06-04T13:00:27;2.60;;;1.80;;
23826;SDS011;12094;50.822;4.376;2023-06-04T13:02:57;7.55;;;2.00;;
23826;SDS011;12094;50.822;4.376;2023-06-04T13:05:24;5.10;;;1.70;;
23826;SDS011;12094;50.822;4.376;2023-06-04T13:07:54;3.15;;;1.70;;
23826;SDS011;12094;50.822;4.376;2023-06-04T13:10:22;4.28;;;1.67;;
23826;SDS011;12094;50.822;4.376;2023-06-04T13:12:51;3.95;;;1.88;;
23826;SDS011;12094;50.822;4.376;2023-06-04T13:15:18;6.38;;;2.10;;
23826;SDS011;12094;50.822;4.376;2023-06-04T13:17:46;5.57;;;2.00;;
23826;SDS011;12094;50.822;4.376;2023-06-04T13:20:13;6.72;;;2.03;;
23826;SDS011;12094;50.822;4.376;2023-06-04T13:22:40;10.95;;;2.20;;
23826;SDS011;12094;50.822;4.376;2023-06-04T13:25:12;4.45;;;2.08;;
23826;SDS011;12094;50.822;4.376;2023-06-04T13:27:41;5.63;;;2.00;;
23826;SDS011;12094;50.822;4.376;2023-06-04T13:30:08;3.53;;;1.70;;
23826;SDS011;12094;50.822;4.376;2023-06-04T13:32:36;4.68;;;1.85;;
23826;SDS011;12094;50.822;4.376;2023-06-04T13:35:04;4.30;;;1.63;;
23826;SDS011;12094;50.822;4.376;2023-06-04T13:37:33;6.07;;;1.60;;
23826;SDS011;12094;50.822;4.376;2023-06-04T13:40:01;3.67;;;1.80;;
23826;SDS011;12094;50.822;4.376;2023-06-04T13:42:28;5.47;;;1.83;;
23826;SDS011;12094;50.822;4.376;2023-06-04T13:44:55;4.75;;;1.70;;
23826;SDS011;12094;50.822;4.376;2023-06-04T13:48:02;7.00;;;1.98;;
23826;SDS011;12094;50.822;4.376;2023-06-04T13:50:55;4.53;;;1.75;;
23826;SDS011;12094;50.822;4.376;2023-06-04T13:54:19;3.40;;;2.05;;
23826;SDS011;12094;50.822;4.376;2023-06-04T13:57:20;4.45;;;1.77;;
23826;SDS011;12094;50.822;4.376;2023-06-04T14:00:51;4.68;;;1.85;;
23826;SDS011;12094;50.822;4.376;2023-06-04T14:05:14;11.73;;;2.28;;
23826;SDS011;12094;50.822;4.376;2023-06-04T14:08:35;4.53;;;1.83;;
23826;SDS011;12094;50.822;4.376;2023-06-04T14:11:02;7.53;;;1.88;;
23826;SDS011;12094;50.822;4.376;2023-06-04T14:13:32;5.28;;;2.30;;
23826;SDS011;12094;50.822;4.376;2023-06-04T14:18:40;5.30;;;1.80;;
23826;SDS011;12094;50.822;4.376;2023-06-04T14:21:08;4.20;;;1.42;;
23826;SDS011;12094;50.822;4.376;2023-06-04T14:23:37;5.47;;;1.80;;
23826;SDS011;12094;50.822;4.376;2023-06-04T14:26:07;4.18;;;1.85;;
23826;SDS011;12094;50.822;4.376;2023-06-04T14:28:35;7.25;;;2.00;;
23826;SDS011;12094;50.822;4.376;2023-06-04T14:31:02;3.03;;;1.50;;
23826;SDS011;12094;50.822;4.376;2023-06-04T14:33:30;5.05;;;2.00;;
23826;SDS011;12094;50.822;4.376;2023-06-04T14:35:58;5.70;;;2.08;;
23826;SDS011;12094;50.822;4.376;2023-06-04T14:38:26;6.43;;;1.75;;
23826;SDS011;12094;50.822;4.376;2023-06-04T14:40:54;4.13;;;1.88;;
23826;SDS011;12094;50.822;4.376;2023-06-04T14:43:24;4.18;;;1.70;;
23826;SDS011;12094;50.822;4.376;2023-06-04T14:46:01;4.18;;;1.88;;
23826;SDS011;12094;50.822;4.376;2023-06-04T14:48:29;4.85;;;1.60;;
23826;SDS011;12094;50.822;4.376;2023-06-04T14:50:56;5.50;;;1.90;;
23826;SDS011;12094;50.822;4.376;2023-06-04T14:53:23;4.03;;;2.10;;
23826;SDS011;12094;50.822;4.376;2023-06-04T14:55:51;3.78;;;1.98;;
23826;SDS011;12094;50.822;4.376;2023-06-04T14:58:22;4.82;;;1.60;;
23826;SDS011;12094;50.822;4.376;2023-06-04T15:00:52;7.70;;;1.98;;
23826;SDS011;12094;50.822;4.376;2023-06-04T15:03:20;3.88;;;1.70;;
23826;SDS011;12094;50.822;4.376;2023-06-04T15:05:48;3.13;;;1.58;;
23826;SDS011;12094;50.822;4.376;2023-06-04T15:08:17;7.15;;;2.30;;
23826;SDS011;12094;50.822;4.376;2023-06-04T15:10:44;4.00;;;2.00;;
23826;SDS011;12094;50.822;4.376;2023-06-04T15:13:11;5.32;;;2.08;;
23826;SDS011;12094;50.822;4.376;2023-06-04T15:15:39;3.85;;;1.52;;
23826;SDS011;12094;50.822;4.376;2023-06-04T15:18:07;7.22;;;1.65;;
23826;SDS011;12094;50.822;4.376;2023-06-04T15:20:34;5.55;;;2.10;;
23826;SDS011;12094;50.822;4.376;2023-06-04T15:23:02;6.82;;;1.77;;
23826;SDS011;12094;50.822;4.376;2023-06-04T15:25:29;5.97;;;1.85;;
23826;SDS011;12094;50.822;4.376;2023-06-04T15:27:56;2.35;;;1.55;;
23826;SDS011;12094;50.822;4.376;2023-06-04T15:30:26;5.65;;;1.85;;
23826;SDS011;12094;50.822;4.376;2023-06-04T15:32:53;3.20;;;1.85;;
23826;SDS011;12094;50.822;4.376;2023-06-04T15:35:20;7.22;;;2.30;;
23826;SDS011;12094;50.822;4.376;2023-06-04T15:37:47;4.03;;;1.80;;
23826;SDS011;12094;50.822;4.376;2023-06-04T15:40:14;2.58;;;1.80;;
23826;SDS011;12094;50.822;4.376;2023-06-04T15:42:41;6.93;;;1.80;;